Time;durP1;ratioP1;P1;durP2;ratioP2;P2;SDS_P1;SDS_P2;PMS_P1;PMS_P2;Temp;Humidity;BMP_temperature;BMP_pressure;BME280_temperature;BME280_humidity;BME280_pressure;Samples;Min_cycle;Max_cycle;Signal;HPM_P1;HPM_P2
2021/09/30 00:01:26;;;;;;;7.50;2.80;;;;;;;;;;5075884;28;20100;-59
2021/09/30 00:03:52;;;;;;;5.77;2.50;;;;;;;;;;5076067;28;20371;-59
2021/09/30 00:06:20;;;;;;;4.23;2.23;;;;;;;;;;5072295;28;20028;-59
2021/09/30 00:08:48;;;;;;;4.53;2.40;;;;;;;;;;5070485;28;20020;-59
2021/09/30 00:11:21;;;;;;;4.93;2.37;;;;;;;;;;5069842;28;20027;-58
2021/09/30 00:13:59;;;;;;;7.60;2.33;;;;;;;;;;5070462;28;20111;-59
2021/09/30 00:16:36;;;;;;;10.90;2.30;;;;;;;;;;5073111;28;20044;-60
2021/09/30 00:33:23;;;;;;;4.87;2.40;;;;;;;;;;5069829;28;20317;-58
2021/09/30 00:41:23;;;;;;;3.53;1.90;;;;;;;;;;5074975;28;20485;-59
2021/09/30 00:49:29;;;;;;;7.03;2.60;;;;;;;;;;5075014;28;20028;-58
2021/09/30 00:52:07;;;;;;;4.47;2.63;;;;;;;;;;5069646;28;20032;-59
2021/09/30 01:27:30;;;;;;;5.28;2.08;;;;;;;;;;5074182;28;20105;-59
2021/09/30 02:58:01;;;;;;;3.10;1.57;;;;;;;;;;5072776;28;20039;-58
2021/09/30 02:59:36;;;;;;;3.37;1.80;;;;;;;;;;5072742;28;20086;-58
2021/09/30 03:02:04;;;;;;;4.20;2.40;;;;;;;;;;5071550;28;20035;-58
2021/09/30 03:04:31;;;;;;;6.90;1.70;;;;;;;;;;5070245;28;20484;-59
2021/09/30 03:06:59;;;;;;;6.23;1.70;;;;;;;;;;5066911;28;20028;-58
2021/09/30 03:09:43;;;;;;;8.17;2.43;;;;;;;;;;5067125;28;20049;-58
2021/09/30 03:15:03;;;;;;;3.60;2.10;;;;;;;;;;5070357;28;20120;-59
2021/09/30 03:17:50;;;;;;;5.33;2.00;;;;;;;;;;5072186;28;20377;-58
2021/09/30 03:23:11;;;;;;;3.77;1.80;;;;;;;;;;5072581;28;20128;-58
2021/09/30 03:25:39;;;;;;;7.97;2.53;;;;;;;;;;5052046;28;20045;-58
2021/09/30 03:28:06;;;;;;;5.33;2.00;;;;;;;;;;5047087;28;20472;-58
2021/09/30 03:30:34;;;;;;;7.20;2.00;;;;;;;;;;5049060;28;20465;-58
2021/09/30 03:33:03;;;;;;;4.27;2.30;;;;;;;;;;5053612;28;20112;-58
2021/09/30 03:35:31;;;;;;;2.90;1.80;;;;;;;;;;5053556;28;20083;-59
2021/09/30 03:37:58;;;;;;;5.83;2.20;;;;;;;;;;5057850;28;20113;-58
2021/09/30 03:40:24;;;;;;;3.90;1.57;;;;;;;;;;5058801;28;20035;-58
2021/09/30 03:42:51;;;;;;;3.30;2.10;;;;;;;;;;5058772;28;20033;-58
2021/09/30 03:45:18;;;;;;;11.43;2.77;;;;;;;;;;5058665;28;20032;-58
2021/09/30 03:47:45;;;;;;;3.40;1.53;;;;;;;;;;5061871;28;20017;-58
2021/09/30 03:50:17;;;;;;;7.07;2.30;;;;;;;;;;5073987;28;20438;-58
2021/09/30 03:55:27;;;;;;;8.10;2.30;;;;;;;;;;5073980;28;20051;-58
2021/09/30 04:00:39;;;;;;;9.30;2.15;;;;;;;;;;5077841;28;20105;-59
2021/09/30 04:03:07;;;;;;;4.03;1.80;;;;;;;;;;5078652;28;20438;-58
2021/09/30 04:05:36;;;;;;;8.10;2.50;;;;;;;;;;5078364;28;20479;-58
2021/09/30 04:08:04;;;;;;;6.50;2.07;;;;;;;;;;5078526;28;20032;-58
2021/09/30 04:10:30;;;;;;;4.93;2.20;;;;;;;;;;5078094;28;20016;-58
2021/09/30 04:12:57;;;;;;;16.63;2.47;;;;;;;;;;5072973;28;20020;-58
2021/09/30 04:15:24;;;;;;;3.77;2.13;;;;;;;;;;5072856;28;20025;-58
2021/09/30 04:17:51;;;;;;;5.77;1.60;;;;;;;;;;5072450;28;20021;-58
2021/09/30 04:20:18;;;;;;;3.13;1.80;;;;;;;;;;5073260;28;20507;-58
2021/09/30 04:22:47;;;;;;;3.77;1.90;;;;;;;;;;5077183;28;20095;-58
2021/09/30 04:25:14;;;;;;;3.10;1.97;;;;;;;;;;5078343;28;20028;-58
2021/09/30 04:27:41;;;;;;;3.60;1.83;;;;;;;;;;5078141;28;20027;-58
2021/09/30 04:30:08;;;;;;;3.93;2.20;;;;;;;;;;5078390;28;20016;-58
2021/09/30 04:32:35;;;;;;;4.87;1.57;;;;;;;;;;5078072;28;20025;-58
2021/09/30 04:35:01;;;;;;;6.60;1.83;;;;;;;;;;5073204;28;20024;-58
2021/09/30 04:37:28;;;;;;;8.00;2.10;;;;;;;;;;5073173;28;20060;-58
2021/09/30 04:39:55;;;;;;;4.77;1.90;;;;;;;;;;5073101;28;20028;-58
2021/09/30 04:42:22;;;;;;;4.80;1.60;;;;;;;;;;5070293;28;20024;-58
2021/09/30 04:44:49;;;;;;;2.07;1.30;;;;;;;;;;5073830;28;20032;-58
2021/09/30 04:47:15;;;;;;;8.27;1.90;;;;;;;;;;5074515;28;20511;-58
2021/09/30 04:49:42;;;;;;;7.10;1.87;;;;;;;;;;5074971;28;20467;-58
2021/09/30 04:52:09;;;;;;;6.33;2.03;;;;;;;;;;5074307;28;20032;-58
2021/09/30 04:54:36;;;;;;;4.93;1.63;;;;;;;;;;5074518;28;20121;-59
2021/09/30 04:57:03;;;;;;;4.93;1.67;;;;;;;;;;5070123;28;20518;-58
2021/09/30 04:59:29;;;;;;;6.83;1.70;;;;;;;;;;5069466;28;20067;-58
2021/09/30 05:01:56;;;;;;;5.70;1.60;;;;;;;;;;5069497;28;20566;-58
2021/09/30 05:04:23;;;;;;;4.13;1.60;;;;;;;;;;5069002;28;20033;-58
2021/09/30 05:06:51;;;;;;;4.80;1.50;;;;;;;;;;5072860;28;20021;-58
2021/09/30 05:09:18;;;;;;;11.90;2.00;;;;;;;;;;5074416;28;20037;-58
2021/09/30 05:11:53;;;;;;;8.77;1.90;;;;;;;;;;5074379;28;20025;-58
2021/09/30 05:14:20;;;;;;;11.07;2.73;;;;;;;;;;5074384;28;20028;-58
2021/09/30 05:16:49;;;;;;;7.37;2.17;;;;;;;;;;5074391;28;20091;-58
2021/09/30 05:19:16;;;;;;;4.53;1.60;;;;;;;;;;5069397;28;20028;-58
2021/09/30 05:21:43;;;;;;;4.07;1.77;;;;;;;;;;5069061;28;20546;-58
2021/09/30 05:24:10;;;;;;;6.50;1.60;;;;;;;;;;5069011;28;20024;-58
2021/09/30 05:26:36;;;;;;;10.13;1.67;;;;;;;;;;5068882;28;20070;-58
2021/09/30 05:29:06;;;;;;;3.27;1.50;;;;;;;;;;5072730;28;20082;-58
2021/09/30 05:31:33;;;;;;;5.83;2.00;;;;;;;;;;5073956;28;20028;-58
2021/09/30 05:34:00;;;;;;;5.57;1.57;;;;;;;;;;5073470;28;20025;-58
2021/09/30 05:36:27;;;;;;;4.53;1.90;;;;;;;;;;5073830;28;20486;-58
2021/09/30 05:38:54;;;;;;;3.90;1.63;;;;;;;;;;5074206;28;20385;-57
2021/09/30 05:41:21;;;;;;;5.00;1.50;;;;;;;;;;5070192;28;20364;-58
2021/09/30 05:43:56;;;;;;;5.80;1.87;;;;;;;;;;5068826;28;20111;-58
2021/09/30 05:49:08;;;;;;;;;;;;;;;;;;5069626;28;20056;-58
2021/09/30 05:51:34;;;;;;;3.20;1.57;;;;;;;;;;5072636;28;19904;-57
2021/09/30 05:54:01;;;;;;;2.50;1.50;;;;;;;;;;5073681;28;20387;-58
2021/09/30 05:56:28;;;;;;;3.73;1.83;;;;;;;;;;5073681;28;20372;-58
2021/09/30 05:58:55;;;;;;;5.30;1.80;;;;;;;;;;5073198;28;20056;-57
2021/09/30 06:05:37;;;;;;;4.87;1.63;;;;;;;;;;5069189;28;20033;-58
2021/09/30 06:12:34;;;;;;;3.22;1.88;;;;;;;;;;5050060;28;20048;-57
2021/09/30 06:15:03;;;;;;;3.73;1.50;;;;;;;;;;5053039;28;20039;-58
2021/09/30 06:17:31;;;;;;;2.60;1.50;;;;;;;;;;5053351;28;20024;-58
2021/09/30 06:19:57;;;;;;;3.93;1.40;;;;;;;;;;5053126;28;20396;-57
2021/09/30 06:22:24;;;;;;;8.07;2.10;;;;;;;;;;5056289;28;20029;-57
2021/09/30 06:24:53;;;;;;;6.77;1.80;;;;;;;;;;5071331;28;20112;-58
2021/09/30 06:27:20;;;;;;;3.40;1.70;;;;;;;;;;5068017;28;20109;-58
2021/09/30 06:29:46;;;;;;;5.50;1.70;;;;;;;;;;5067623;28;20025;-57
2021/09/30 06:32:13;;;;;;;5.93;1.43;;;;;;;;;;5068173;28;20031;-58
2021/09/30 06:34:41;;;;;;;5.20;1.50;;;;;;;;;;5068656;28;20056;-57
2021/09/30 06:37:08;;;;;;;3.27;1.70;;;;;;;;;;5072858;28;20533;-59
2021/09/30 06:39:37;;;;;;;7.50;1.57;;;;;;;;;;5073013;28;20498;-57
2021/09/30 06:42:04;;;;;;;4.70;1.60;;;;;;;;;;5072794;28;20032;-58
2021/09/30 06:44:30;;;;;;;3.70;1.63;;;;;;;;;;5072712;28;20028;-57
2021/09/30 06:46:57;;;;;;;4.10;1.60;;;;;;;;;;5070506;28;20028;-58
2021/09/30 06:49:24;;;;;;;6.07;1.70;;;;;;;;;;5067569;28;20369;-59
2021/09/30 06:51:51;;;;;;;2.63;1.40;;;;;;;;;;5067881;28;20356;-58
2021/09/30 06:54:18;;;;;;;6.73;1.80;;;;;;;;;;5067561;28;20028;-58
2021/09/30 06:56:48;;;;;;;2.77;1.60;;;;;;;;;;5068578;28;20060;-57
2021/09/30 06:59:21;;;;;;;4.70;1.57;;;;;;;;;;5072193;28;20486;-57
2021/09/30 07:01:48;;;;;;;3.63;1.70;;;;;;;;;;5071850;28;20055;-58
2021/09/30 07:04:15;;;;;;;5.17;1.47;;;;;;;;;;5072511;28;20029;-57
2021/09/30 07:06:42;;;;;;;5.97;1.70;;;;;;;;;;5071874;28;20016;-57
2021/09/30 07:09:08;;;;;;;7.30;1.40;;;;;;;;;;5071248;28;20036;-58
2021/09/30 07:11:35;;;;;;;5.80;1.90;;;;;;;;;;5067335;28;20040;-57
2021/09/30 07:14:02;;;;;;;3.40;1.50;;;;;;;;;;5067607;28;20085;-58
2021/09/30 07:16:29;;;;;;;3.43;1.80;;;;;;;;;;5067445;28;20157;-58
2021/09/30 07:18:55;;;;;;;4.23;1.90;;;;;;;;;;5067528;28;20036;-57
2021/09/30 07:21:22;;;;;;;6.00;1.70;;;;;;;;;;5072330;28;20112;-57
2021/09/30 07:23:49;;;;;;;5.73;1.50;;;;;;;;;;5072118;28;20040;-58
2021/09/30 07:26:16;;;;;;;8.67;1.80;;;;;;;;;;5072161;28;20041;-58
2021/09/30 07:28:43;;;;;;;3.97;1.80;;;;;;;;;;5072415;28;20083;-57
2021/09/30 07:31:09;;;;;;;3.40;1.70;;;;;;;;;;5071362;28;20028;-58
2021/09/30 07:33:36;;;;;;;4.47;1.50;;;;;;;;;;5066966;28;20082;-58
2021/09/30 07:36:03;;;;;;;3.73;1.73;;;;;;;;;;5066826;28;20034;-58
2021/09/30 07:38:30;;;;;;;4.17;1.50;;;;;;;;;;5067156;28;20039;-58
2021/09/30 07:40:57;;;;;;;6.00;1.50;;;;;;;;;;5067271;28;20035;-58
2021/09/30 07:43:23;;;;;;;5.47;2.00;;;;;;;;;;5072271;28;20035;-58
2021/09/30 07:45:50;;;;;;;4.00;1.77;;;;;;;;;;5072239;28;20368;-59
2021/09/30 07:48:17;;;;;;;3.30;1.43;;;;;;;;;;5071758;28;20036;-58
2021/09/30 07:50:45;;;;;;;5.20;1.70;;;;;;;;;;5071322;28;20020;-58
2021/09/30 07:53:14;;;;;;;4.23;1.63;;;;;;;;;;5071800;28;20370;-58
2021/09/30 07:55:40;;;;;;;3.97;1.70;;;;;;;;;;5066918;28;20183;-58
2021/09/30 07:58:09;;;;;;;6.17;1.90;;;;;;;;;;5067160;28;20029;-57
2021/09/30 08:00:37;;;;;;;6.13;1.93;;;;;;;;;;5066635;28;20064;-58
2021/09/30 08:03:04;;;;;;;3.27;1.90;;;;;;;;;;5046931;28;20036;-58
2021/09/30 08:05:35;;;;;;;3.10;1.70;;;;;;;;;;5051186;28;20044;-57
2021/09/30 08:08:09;;;;;;;3.47;1.80;;;;;;;;;;5051573;28;20090;-58
2021/09/30 08:10:36;;;;;;;6.50;1.60;;;;;;;;;;5051863;28;20032;-58
2021/09/30 08:13:03;;;;;;;4.77;1.57;;;;;;;;;;5071577;28;20020;-58
2021/09/30 08:15:30;;;;;;;4.77;1.70;;;;;;;;;;5071371;28;20017;-58
2021/09/30 08:17:57;;;;;;;3.73;1.80;;;;;;;;;;5069802;28;20484;-58
2021/09/30 08:20:25;;;;;;;4.43;1.60;;;;;;;;;;5070280;28;20024;-58
2021/09/30 08:22:53;;;;;;;2.37;1.30;;;;;;;;;;5070055;28;20458;-58
2021/09/30 08:25:20;;;;;;;5.23;1.83;;;;;;;;;;5070243;28;20040;-58
2021/09/30 08:27:46;;;;;;;5.63;1.80;;;;;;;;;;5075339;28;20025;-57
2021/09/30 08:30:13;;;;;;;4.57;1.70;;;;;;;;;;5075212;28;20039;-58
2021/09/30 08:32:41;;;;;;;4.10;1.93;;;;;;;;;;5075031;28;20024;-58
2021/09/30 08:35:08;;;;;;;6.17;1.60;;;;;;;;;;5074826;28;20089;-58
2021/09/30 08:37:36;;;;;;;5.67;2.00;;;;;;;;;;5075175;28;20060;-57
2021/09/30 08:40:04;;;;;;;5.30;1.67;;;;;;;;;;5070067;28;20113;-57
2021/09/30 08:42:30;;;;;;;3.73;1.97;;;;;;;;;;5069643;28;20036;-58
2021/09/30 08:44:59;;;;;;;3.87;1.60;;;;;;;;;;5069907;28;20476;-57
2021/09/30 08:47:26;;;;;;;2.47;1.63;;;;;;;;;;5069898;28;20112;-57
2021/09/30 08:49:53;;;;;;;3.77;1.83;;;;;;;;;;5074482;28;20021;-57
2021/09/30 08:52:20;;;;;;;3.80;1.80;;;;;;;;;;5075127;28;20021;-57
2021/09/30 08:54:46;;;;;;;5.20;1.97;;;;;;;;;;5075322;28;20391;-57
2021/09/30 08:57:13;;;;;;;3.90;1.70;;;;;;;;;;5075299;28;20422;-57
2021/09/30 08:59:40;;;;;;;3.87;2.10;;;;;;;;;;5074829;28;20021;-58
2021/09/30 09:02:14;;;;;;;3.57;1.70;;;;;;;;;;5069655;28;20044;-58
2021/09/30 09:05:01;;;;;;;4.83;1.70;;;;;;;;;;5069045;28;20037;-58
2021/09/30 09:07:28;;;;;;;6.37;2.63;;;;;;;;;;5069734;28;20478;-57
2021/09/30 09:09:56;;;;;;;4.63;1.47;;;;;;;;;;5069476;28;20431;-58
2021/09/30 09:12:23;;;;;;;5.00;2.20;;;;;;;;;;5074463;28;20028;-57
2021/09/30 09:14:51;;;;;;;5.57;2.20;;;;;;;;;;5074503;28;20013;-58
2021/09/30 09:17:18;;;;;;;3.87;2.00;;;;;;;;;;5074024;28;20020;-58
2021/09/30 09:19:45;;;;;;;2.63;1.40;;;;;;;;;;5074568;28;20017;-58
2021/09/30 09:22:14;;;;;;;5.73;1.70;;;;;;;;;;5073682;28;20024;-58
2021/09/30 09:25:07;;;;;;;7.03;2.07;;;;;;;;;;5069267;28;20068;-57
2021/09/30 09:27:46;;;;;;;2.47;1.40;;;;;;;;;;5064377;28;20036;-58
2021/09/30 09:30:31;;;;;;;3.63;1.73;;;;;;;;;;5068741;28;20476;-57
2021/09/30 09:33:00;;;;;;;6.85;2.15;;;;;;;;;;5071067;28;20078;-57
2021/09/30 09:35:27;;;;;;;3.43;1.80;;;;;;;;;;5073707;28;20021;-58
2021/09/30 09:38:01;;;;;;;4.57;1.60;;;;;;;;;;5073834;28;20039;-57
2021/09/30 09:40:28;;;;;;;6.47;1.90;;;;;;;;;;5074079;28;20025;-57
2021/09/30 09:42:55;;;;;;;5.57;2.83;;;;;;;;;;5074183;28;20035;-58
2021/09/30 09:45:21;;;;;;;3.10;1.90;;;;;;;;;;5071706;28;20025;-57
2021/09/30 09:47:48;;;;;;;5.20;1.80;;;;;;;;;;5069029;28;20086;-57
2021/09/30 09:50:18;;;;;;;4.90;1.80;;;;;;;;;;5068144;28;20129;-58
2021/09/30 09:52:46;;;;;;;3.60;1.87;;;;;;;;;;5068741;28;20101;-57
2021/09/30 09:55:17;;;;;;;3.30;1.67;;;;;;;;;;5070470;28;20020;-57
2021/09/30 09:58:03;;;;;;;9.23;2.40;;;;;;;;;;5073626;28;20056;-57
2021/09/30 10:00:31;;;;;;;3.47;1.67;;;;;;;;;;5072786;28;20013;-57
2021/09/30 10:02:57;;;;;;;4.53;1.70;;;;;;;;;;5053627;28;20067;-58
2021/09/30 10:05:27;;;;;;;4.20;1.57;;;;;;;;;;5053533;28;20029;-57
2021/09/30 10:07:54;;;;;;;3.47;1.60;;;;;;;;;;5050449;28;20041;-57
2021/09/30 10:10:20;;;;;;;6.33;1.70;;;;;;;;;;5065654;28;20024;-58
2021/09/30 10:12:47;;;;;;;5.07;2.10;;;;;;;;;;5068494;28;20082;-57
2021/09/30 10:15:15;;;;;;;5.97;2.07;;;;;;;;;;5068032;28;20047;-57
2021/09/30 10:17:42;;;;;;;4.27;2.00;;;;;;;;;;5070547;28;20021;-57
2021/09/30 10:20:09;;;;;;;7.27;1.90;;;;;;;;;;5073090;28;20379;-57
2021/09/30 10:22:36;;;;;;;2.77;1.30;;;;;;;;;;5073184;28;20479;-57
2021/09/30 10:25:03;;;;;;;3.50;2.10;;;;;;;;;;5073081;28;20036;-58
2021/09/30 10:27:30;;;;;;;5.97;2.10;;;;;;;;;;5073373;28;20082;-57
2021/09/30 10:29:56;;;;;;;6.23;1.80;;;;;;;;;;5070599;28;20437;-57
2021/09/30 10:32:25;;;;;;;6.63;2.03;;;;;;;;;;5067269;28;20025;-57
2021/09/30 10:34:55;;;;;;;3.47;2.07;;;;;;;;;;5067862;28;20032;-58
2021/09/30 10:37:31;;;;;;;4.10;1.70;;;;;;;;;;5068119;28;20508;-58
2021/09/30 10:40:19;;;;;;;11.93;2.50;;;;;;;;;;5069501;28;20016;-58
2021/09/30 10:42:58;;;;;;;10.63;4.47;;;;;;;;;;5072309;28;20032;-57
2021/09/30 10:45:26;;;;;;;9.47;2.00;;;;;;;;;;5072668;28;20102;-57
2021/09/30 10:47:55;;;;;;;6.97;2.10;;;;;;;;;;5072790;28;20020;-57
2021/09/30 10:50:41;;;;;;;5.00;2.03;;;;;;;;;;5072732;28;20127;-57
2021/09/30 10:53:08;;;;;;;5.03;1.67;;;;;;;;;;5068179;28;20390;-57
2021/09/30 10:55:35;;;;;;;3.67;1.73;;;;;;;;;;5067390;28;20086;-57
2021/09/30 10:58:03;;;;;;;7.93;2.03;;;;;;;;;;5067974;28;20367;-58
2021/09/30 11:00:30;;;;;;;4.77;2.23;;;;;;;;;;5067373;28;20737;-57
2021/09/30 11:03:05;;;;;;;5.37;2.67;;;;;;;;;;5071537;28;20070;-58
2021/09/30 11:05:36;;;;;;;5.23;2.03;;;;;;;;;;5072390;28;20036;-57
2021/09/30 11:08:21;;;;;;;5.17;1.83;;;;;;;;;;5072274;28;20099;-57
2021/09/30 11:10:47;;;;;;;;;;;;;;;;;;5072594;28;20094;-57
2021/09/30 11:13:28;;;;;;;5.30;2.17;;;;;;;;;;5072209;28;19999;-57
2021/09/30 11:16:02;;;;;;;5.00;2.10;;;;;;;;;;5067097;28;20499;-57
2021/09/30 11:18:47;;;;;;;3.70;2.00;;;;;;;;;;5067431;28;20032;-58
2021/09/30 11:21:32;;;;;;;3.20;1.77;;;;;;;;;;5066603;28;20414;-58
2021/09/30 11:24:02;;;;;;;4.53;1.98;;;;;;;;;;5068633;28;20035;-57
2021/09/30 11:26:32;;;;;;;8.17;2.13;;;;;;;;;;5071825;28;20040;-57
2021/09/30 11:29:25;;;;;;;3.00;2.00;;;;;;;;;;5072276;28;20024;-57
2021/09/30 11:31:55;;;;;;;3.47;2.00;;;;;;;;;;5068401;28;20066;-57
2021/09/30 11:34:35;;;;;;;4.97;2.57;;;;;;;;;;5072102;28;20096;-57
2021/09/30 11:37:14;;;;;;;11.13;2.63;;;;;;;;;;5048729;28;20037;-58
2021/09/30 11:39:41;;;;;;;8.30;2.27;;;;;;;;;;5047119;28;20033;-58
2021/09/30 11:42:08;;;;;;;4.77;2.17;;;;;;;;;;5047219;28;20021;-57
2021/09/30 11:44:34;;;;;;;4.83;2.50;;;;;;;;;;5047721;28;20025;-58
2021/09/30 11:47:01;;;;;;;9.13;2.23;;;;;;;;;;5070294;28;20031;-57
2021/09/30 11:49:39;;;;;;;3.77;2.17;;;;;;;;;;5072000;28;20017;-57
2021/09/30 11:52:11;;;;;;;14.60;4.60;;;;;;;;;;5073905;28;20020;-57
2021/09/30 11:54:38;;;;;;;3.57;2.20;;;;;;;;;;5075994;28;20378;-57
2021/09/30 11:57:05;;;;;;;5.37;1.53;;;;;;;;;;5075865;28;20740;-57
2021/09/30 11:59:32;;;;;;;8.10;2.03;;;;;;;;;;5072044;28;20024;-57
2021/09/30 12:02:05;;;;;;;6.07;2.10;;;;;;;;;;5070800;28;20505;-58
2021/09/30 12:04:42;;;;;;;3.53;1.80;;;;;;;;;;5070535;28;20049;-57
2021/09/30 12:07:16;;;;;;;5.17;2.27;;;;;;;;;;5070726;28;20024;-57
2021/09/30 12:09:43;;;;;;;8.53;1.97;;;;;;;;;;5074909;28;20025;-57
2021/09/30 12:12:10;;;;;;;7.00;2.83;;;;;;;;;;5075279;28;20028;-57
2021/09/30 12:14:52;;;;;;;4.40;2.70;;;;;;;;;;5075442;28;20371;-57
2021/09/30 12:17:20;;;;;;;4.13;2.50;;;;;;;;;;5075629;28;20024;-57
2021/09/30 12:19:49;;;;;;;6.40;2.40;;;;;;;;;;5075370;28;20032;-57
2021/09/30 12:22:20;;;;;;;11.83;2.20;;;;;;;;;;5070168;28;20032;-58
2021/09/30 12:24:49;;;;;;;3.90;1.83;;;;;;;;;;5070094;28;20093;-58
2021/09/30 12:27:16;;;;;;;4.83;2.37;;;;;;;;;;5070379;28;20774;-57
2021/09/30 12:29:47;;;;;;;7.13;2.13;;;;;;;;;;5070368;28;20326;-57
2021/09/30 12:32:16;;;;;;;7.33;3.07;;;;;;;;;;5075272;28;20028;-57
2021/09/30 12:34:55;;;;;;;5.17;2.40;;;;;;;;;;5075140;28;20017;-57
2021/09/30 12:37:27;;;;;;;5.83;2.20;;;;;;;;;;5074873;28;20016;-57
2021/09/30 12:40:04;;;;;;;9.03;2.73;;;;;;;;;;5075048;28;20016;-57
2021/09/30 12:42:31;;;;;;;4.80;2.20;;;;;;;;;;5074335;28;20028;-58
2021/09/30 12:44:58;;;;;;;4.90;2.60;;;;;;;;;;5069820;28;20078;-57
2021/09/30 12:47:29;;;;;;;5.77;2.63;;;;;;;;;;5069734;28;20091;-57
2021/09/30 12:50:03;;;;;;;4.47;2.73;;;;;;;;;;5069702;28;20024;-57
2021/09/30 12:52:29;;;;;;;5.87;2.50;;;;;;;;;;5070842;28;20024;-57
2021/09/30 12:54:56;;;;;;;5.80;2.80;;;;;;;;;;5074927;28;20024;-57
2021/09/30 12:57:31;;;;;;;6.17;3.23;;;;;;;;;;5075127;28;20020;-57
2021/09/30 13:00:24;;;;;;;10.05;2.78;;;;;;;;;;5054964;28;20167;-57
2021/09/30 13:02:56;;;;;;;11.27;3.20;;;;;;;;;;5050588;28;20033;-58
2021/09/30 13:05:23;;;;;;;7.50;2.87;;;;;;;;;;5051974;28;20544;-57
2021/09/30 13:08:00;;;;;;;5.87;2.70;;;;;;;;;;5049626;28;20442;-57
2021/09/30 13:10:33;;;;;;;5.33;2.83;;;;;;;;;;5056811;28;20025;-57
2021/09/30 13:13:14;;;;;;;5.03;3.00;;;;;;;;;;5069501;28;20384;-57
2021/09/30 13:15:43;;;;;;;5.17;2.60;;;;;;;;;;5072118;28;20489;-58
2021/09/30 13:18:11;;;;;;;7.43;3.73;;;;;;;;;;5074742;28;20094;-57
2021/09/30 13:20:39;;;;;;;5.53;2.73;;;;;;;;;;5073846;28;20019;-58
2021/09/30 13:23:06;;;;;;;5.63;2.70;;;;;;;;;;5074193;28;20094;-58
2021/09/30 13:25:33;;;;;;;5.07;2.50;;;;;;;;;;5074507;28;20120;-57
2021/09/30 13:28:00;;;;;;;8.67;2.80;;;;;;;;;;5071175;28;20503;-57
2021/09/30 13:30:32;;;;;;;4.67;2.77;;;;;;;;;;5069443;28;20044;-57
2021/09/30 13:33:00;;;;;;;7.60;2.90;;;;;;;;;;5069101;28;20031;-57
2021/09/30 13:35:28;;;;;;;4.73;2.70;;;;;;;;;;5068502;28;20448;-58
2021/09/30 13:37:55;;;;;;;4.90;2.83;;;;;;;;;;5071871;28;20719;-58
2021/09/30 13:40:23;;;;;;;7.90;2.40;;;;;;;;;;5074084;28;20016;-57
2021/09/30 13:42:50;;;;;;;4.40;2.23;;;;;;;;;;5074155;28;20025;-57
2021/09/30 13:45:18;;;;;;;7.67;2.00;;;;;;;;;;5074083;28;20044;-57
2021/09/30 13:47:45;;;;;;;5.97;2.43;;;;;;;;;;5073871;28;20017;-57
2021/09/30 13:50:16;;;;;;;5.57;2.50;;;;;;;;;;5070326;28;20036;-57
2021/09/30 13:52:44;;;;;;;4.57;2.57;;;;;;;;;;5068825;28;20096;-57
2021/09/30 13:55:11;;;;;;;5.33;2.47;;;;;;;;;;5068807;28;20036;-57
2021/09/30 13:57:38;;;;;;;4.37;2.67;;;;;;;;;;5068486;28;20058;-58
2021/09/30 14:00:07;;;;;;;4.43;2.80;;;;;;;;;;5071476;28;20031;-57
2021/09/30 14:02:35;;;;;;;3.40;2.10;;;;;;;;;;5073630;28;20490;-57
2021/09/30 14:05:02;;;;;;;5.63;2.30;;;;;;;;;;5073335;28;20380;-58
2021/09/30 14:07:29;;;;;;;5.67;3.00;;;;;;;;;;5073437;28;20518;-58
2021/09/30 14:09:55;;;;;;;4.33;2.83;;;;;;;;;;5073663;28;20117;-57
2021/09/30 14:12:22;;;;;;;4.93;3.30;;;;;;;;;;5070326;28;20500;-57
2021/09/30 14:14:49;;;;;;;5.93;3.97;;;;;;;;;;5068184;28;20103;-58
2021/09/30 14:17:16;;;;;;;9.27;4.53;;;;;;;;;;5068136;28;20024;-57
2021/09/30 14:19:43;;;;;;;8.50;4.70;;;;;;;;;;5067926;28;20028;-59
2021/09/30 14:22:09;;;;;;;12.53;5.53;;;;;;;;;;5070623;28;20044;-57
2021/09/30 14:24:36;;;;;;;11.10;5.27;;;;;;;;;;5073076;28;20036;-57
2021/09/30 14:27:03;;;;;;;6.53;4.50;;;;;;;;;;5073359;28;20055;-57
2021/09/30 14:29:30;;;;;;;6.93;3.93;;;;;;;;;;5072836;28;20089;-57
2021/09/30 14:31:57;;;;;;;7.57;3.80;;;;;;;;;;5073118;28;20052;-57
2021/09/30 14:34:24;;;;;;;9.63;3.87;;;;;;;;;;5070394;28;20027;-58
2021/09/30 14:36:51;;;;;;;5.70;3.07;;;;;;;;;;5067716;28;20028;-58
2021/09/30 14:39:17;;;;;;;9.87;3.63;;;;;;;;;;5068048;28;20101;-57
2021/09/30 14:41:44;;;;;;;8.60;3.07;;;;;;;;;;5067548;28;20107;-58
2021/09/30 14:44:11;;;;;;;4.13;2.63;;;;;;;;;;5069801;28;20436;-57
2021/09/30 14:46:38;;;;;;;6.03;2.90;;;;;;;;;;5072778;28;20463;-57
2021/09/30 14:49:05;;;;;;;5.67;2.50;;;;;;;;;;5072557;28;20033;-57
2021/09/30 14:51:32;;;;;;;4.80;2.70;;;;;;;;;;5072445;28;20021;-57
2021/09/30 14:53:59;;;;;;;6.87;2.87;;;;;;;;;;5072582;28;20024;-57
2021/09/30 14:56:26;;;;;;;7.13;3.10;;;;;;;;;;5070343;28;20049;-57
2021/09/30 14:58:52;;;;;;;6.13;3.70;;;;;;;;;;5067589;28;20552;-57
2021/09/30 15:01:21;;;;;;;9.33;4.13;;;;;;;;;;5067647;28;20070;-58
2021/09/30 15:03:48;;;;;;;8.10;3.67;;;;;;;;;;5067639;28;20085;-58
2021/09/30 15:06:15;;;;;;;5.87;3.00;;;;;;;;;;5068591;28;20131;-58
2021/09/30 15:08:42;;;;;;;12.53;3.20;;;;;;;;;;5072300;28;20028;-58
2021/09/30 15:11:09;;;;;;;6.53;2.87;;;;;;;;;;5071914;28;20116;-58
2021/09/30 15:13:36;;;;;;;9.33;3.60;;;;;;;;;;5072032;28;20107;-58
2021/09/30 15:16:06;;;;;;;7.53;3.33;;;;;;;;;;5072411;28;20378;-58
2021/09/30 15:21:21;;;;;;;7.90;3.70;;;;;;;;;;5066943;28;20036;-59
2021/09/30 15:23:48;;;;;;;6.43;4.07;;;;;;;;;;5047344;28;20500;-58
2021/09/30 15:26:19;;;;;;;7.80;3.57;;;;;;;;;;5046715;28;20048;-58
2021/09/30 15:28:45;;;;;;;6.30;3.63;;;;;;;;;;5049707;28;20487;-58
2021/09/30 15:31:13;;;;;;;10.27;4.60;;;;;;;;;;5062838;28;20020;-58
2021/09/30 15:33:40;;;;;;;7.13;4.20;;;;;;;;;;5071590;28;20118;-59
2021/09/30 15:36:09;;;;;;;5.07;3.17;;;;;;;;;;5072185;28;20480;-59
2021/09/30 15:38:36;;;;;;;7.33;3.30;;;;;;;;;;5072014;28;20485;-58
2021/09/30 15:41:03;;;;;;;7.07;3.50;;;;;;;;;;5069280;28;20059;-58
2021/09/30 15:43:32;;;;;;;4.77;3.00;;;;;;;;;;5066851;28;20388;-58
2021/09/30 15:45:59;;;;;;;7.87;3.33;;;;;;;;;;5066776;28;20040;-58
2021/09/30 15:48:26;;;;;;;5.27;2.60;;;;;;;;;;5066772;28;20044;-58
2021/09/30 15:50:53;;;;;;;4.13;2.40;;;;;;;;;;5069313;28;20017;-58
2021/09/30 15:53:20;;;;;;;4.63;2.63;;;;;;;;;;5071489;28;20027;-58
2021/09/30 15:55:47;;;;;;;7.40;3.30;;;;;;;;;;5071969;28;20024;-59
2021/09/30 15:58:13;;;;;;;6.33;2.80;;;;;;;;;;5071965;28;20044;-58
2021/09/30 16:00:41;;;;;;;6.17;2.90;;;;;;;;;;5071979;28;20040;-58
2021/09/30 16:03:08;;;;;;;7.13;3.37;;;;;;;;;;5069264;28;20029;-58
2021/09/30 16:05:35;;;;;;;6.27;3.57;;;;;;;;;;5066511;28;20036;-59
2021/09/30 16:08:02;;;;;;;6.63;3.90;;;;;;;;;;5066725;28;20400;-59
2021/09/30 16:10:29;;;;;;;6.93;3.33;;;;;;;;;;5066476;28;20466;-59
2021/09/30 16:12:56;;;;;;;6.07;2.77;;;;;;;;;;5068997;28;20501;-59
2021/09/30 16:15:22;;;;;;;7.33;3.00;;;;;;;;;;5071981;28;20536;-59
2021/09/30 16:17:49;;;;;;;5.90;2.53;;;;;;;;;;5071857;28;20028;-58
2021/09/30 16:20:16;;;;;;;8.80;3.00;;;;;;;;;;5071115;28;20021;-58
2021/09/30 16:22:43;;;;;;;8.07;3.47;;;;;;;;;;5071544;28;20032;-59
2021/09/30 16:25:10;;;;;;;6.90;3.20;;;;;;;;;;5069841;28;20853;-59
2021/09/30 16:27:37;;;;;;;7.83;4.07;;;;;;;;;;5066741;28;20028;-58
2021/09/30 16:30:06;;;;;;;7.63;5.20;;;;;;;;;;5066652;28;20033;-59
2021/09/30 16:32:33;;;;;;;8.97;4.33;;;;;;;;;;5046726;28;20104;-59
2021/09/30 16:34:59;;;;;;;9.23;4.17;;;;;;;;;;5063727;28;20032;-59
2021/09/30 16:37:26;;;;;;;7.93;3.40;;;;;;;;;;5071970;28;20040;-59
2021/09/30 16:39:53;;;;;;;6.50;3.60;;;;;;;;;;5075152;28;20543;-59
2021/09/30 16:42:20;;;;;;;7.47;3.60;;;;;;;;;;5075134;28;20055;-59
2021/09/30 16:44:46;;;;;;;12.73;5.33;;;;;;;;;;5055094;28;20036;-58
2021/09/30 16:47:15;;;;;;;12.10;4.60;;;;;;;;;;5053308;28;20472;-59
2021/09/30 16:49:41;;;;;;;8.67;5.37;;;;;;;;;;5050039;28;20032;-59
2021/09/30 16:52:08;;;;;;;9.50;6.23;;;;;;;;;;5049712;28;20064;-59
2021/09/30 16:54:35;;;;;;;9.97;5.50;;;;;;;;;;5054500;28;20020;-59
2021/09/30 16:57:02;;;;;;;9.87;4.53;;;;;;;;;;5071061;28;20032;-59
2021/09/30 16:59:29;;;;;;;11.00;4.97;;;;;;;;;;5074897;28;20032;-59
2021/09/30 17:01:58;;;;;;;11.27;6.37;;;;;;;;;;5074857;28;20036;-59
2021/09/30 17:04:26;;;;;;;9.33;5.30;;;;;;;;;;5074643;28;20037;-59
2021/09/30 17:06:53;;;;;;;10.73;5.17;;;;;;;;;;5074498;28;20033;-59
2021/09/30 17:09:20;;;;;;;12.60;6.73;;;;;;;;;;5072778;28;20027;-59
2021/09/30 17:11:46;;;;;;;8.27;5.17;;;;;;;;;;5069372;28;20380;-59
2021/09/30 17:14:13;;;;;;;12.63;5.70;;;;;;;;;;5069322;28;20379;-59
2021/09/30 17:16:40;;;;;;;16.85;6.03;;;;;;;;;;5069679;28;20532;-59
2021/09/30 17:19:07;;;;;;;12.85;5.95;;;;;;;;;;5070386;28;20029;-58
2021/09/30 17:21:33;;;;;;;11.70;5.85;;;;;;;;;;5074579;28;20032;-59
2021/09/30 17:24:00;;;;;;;14.20;5.15;;;;;;;;;;5073888;28;20040;-59
2021/09/30 17:26:27;;;;;;;12.35;4.88;;;;;;;;;;5074012;28;20468;-59
2021/09/30 17:28:54;;;;;;;7.45;4.68;;;;;;;;;;5074047;28;20029;-59
2021/09/30 17:31:26;;;;;;;12.30;4.97;;;;;;;;;;5072681;28;20029;-59
2021/09/30 17:33:54;;;;;;;6.03;4.57;;;;;;;;;;5069201;28;20033;-59
2021/09/30 17:36:22;;;;;;;8.75;5.28;;;;;;;;;;5069190;28;20036;-59
2021/09/30 17:38:50;;;;;;;10.45;5.90;;;;;;;;;;5069035;28;20029;-59
2021/09/30 17:41:17;;;;;;;10.00;5.25;;;;;;;;;;5069032;28;20029;-59
2021/09/30 17:43:44;;;;;;;12.50;6.40;;;;;;;;;;5073695;28;20426;-59